createdAt,value
2022-10-29T00:01:32.210Z,25.60
2022-10-29T00:04:04.048Z,22.50
2022-10-29T00:06:35.696Z,26.30
2022-10-29T00:09:14.568Z,24.90
2022-10-29T00:11:54.490Z,24.40
2022-10-29T00:14:29.352Z,26.30
2022-10-29T00:17:01.586Z,26.60
2022-10-29T00:19:33.203Z,31.10
2022-10-29T00:22:04.723Z,22.30
2022-10-29T00:24:36.334Z,28.40
2022-10-29T00:27:08.013Z,27.00
2022-10-29T00:29:39.583Z,20.80
2022-10-29T00:32:11.164Z,23.10
2022-10-29T00:34:42.823Z,24.30
2022-10-29T00:37:14.419Z,23.50
2022-10-29T00:39:45.996Z,21.10
2022-10-29T00:42:19.351Z,22.60
2022-10-29T00:44:51.328Z,19.20
2022-10-29T00:47:26.308Z,22.30
2022-10-29T00:50:02.445Z,24.90
2022-10-29T00:52:37.593Z,23.30
2022-10-29T00:55:15.340Z,25.30
2022-10-29T00:57:51.261Z,22.40
2022-10-29T01:00:24.184Z,19.40
2022-10-29T01:02:56.095Z,18.30
2022-10-29T01:05:29.143Z,21.80
2022-10-29T01:10:41.774Z,19.90
2022-10-29T01:13:27.327Z,20.20
2022-10-29T01:16:07.598Z,22.40
2022-10-29T01:18:45.231Z,19.30
2022-10-29T01:21:42.687Z,19.60
2022-10-29T01:24:51.540Z,23.10
2022-10-29T01:27:40.765Z,22.70
2022-10-29T01:30:20.216Z,22.80
2022-10-29T01:33:05.616Z,22.40
2022-10-29T01:35:47.387Z,18.30
2022-10-29T01:38:27.641Z,20.10
2022-10-29T01:41:07.260Z,18.50
2022-10-29T01:43:45.730Z,20.70
2022-10-29T01:46:22.712Z,22.30
2022-10-29T01:48:59.064Z,17.70
2022-10-29T01:51:34.028Z,19.10
2022-10-29T01:54:11.176Z,16.90
2022-10-29T01:56:42.825Z,16.60
2022-10-29T01:59:28.697Z,18.00
2022-10-29T02:05:12.553Z,21.10
2022-10-29T02:07:50.688Z,20.10
2022-10-29T02:10:27.802Z,17.00
2022-10-29T02:12:59.906Z,20.50
2022-10-29T02:15:36.466Z,22.00
2022-10-29T02:18:10.327Z,23.00
2022-10-29T02:20:46.884Z,25.00
2022-10-29T02:23:18.468Z,25.20
2022-10-29T02:25:50.159Z,17.20
2022-10-29T02:28:21.735Z,17.70
2022-10-29T02:30:53.349Z,20.70
2022-10-29T02:33:25.133Z,23.80
2022-10-29T02:35:56.720Z,27.30
2022-10-29T02:38:28.707Z,22.00
2022-10-29T02:41:00.235Z,23.00
2022-10-29T02:43:31.852Z,22.20
2022-10-29T02:46:20.879Z,21.80
2022-10-29T02:48:52.963Z,22.30
2022-10-29T02:51:24.846Z,19.50
2022-10-29T02:53:56.799Z,22.80
2022-10-29T02:56:28.560Z,20.20
2022-10-29T02:59:00.644Z,21.40
2022-10-29T03:01:32.450Z,18.80
2022-10-29T03:04:04.860Z,17.20
2022-10-29T03:06:36.577Z,21.00
2022-10-29T03:09:08.233Z,15.60
2022-10-29T03:11:39.793Z,24.10
2022-10-29T03:14:11.340Z,22.10
2022-10-29T03:16:43.015Z,18.90
2022-10-29T03:19:14.591Z,24.60
2022-10-29T03:21:46.187Z,18.30
2022-10-29T03:24:17.768Z,20.60
2022-10-29T03:26:49.422Z,16.20
2022-10-29T03:29:21.073Z,24.10
2022-10-29T03:31:52.824Z,17.20
2022-10-29T03:34:25.256Z,12.80
2022-10-29T03:36:56.783Z,22.20
2022-10-29T03:39:28.438Z,24.50
2022-10-29T03:42:00.456Z,22.40
2022-10-29T03:44:32.092Z,21.50
2022-10-29T03:47:03.644Z,17.70
2022-10-29T03:49:35.232Z,18.10
2022-10-29T03:52:07.113Z,26.10
2022-10-29T03:54:38.774Z,20.30
2022-10-29T03:57:10.470Z,31.30
2022-10-29T03:59:42.028Z,16.20
2022-10-29T04:02:13.926Z,19.40
2022-10-29T04:04:45.631Z,24.60
2022-10-29T04:07:17.236Z,19.60
2022-10-29T04:09:48.857Z,17.60
2022-10-29T04:12:20.611Z,18.30
2022-10-29T04:17:28.644Z,17.80
2022-10-29T04:20:00.367Z,13.80
2022-10-29T04:28:42.503Z,27.20
2022-10-29T04:31:09.470Z,19.40
2022-10-29T04:33:41.329Z,23.30
2022-10-29T04:36:13.465Z,22.80
2022-10-29T04:38:45.069Z,18.50
2022-10-29T04:41:16.669Z,20.20
2022-10-29T04:43:48.354Z,27.50
2022-10-29T04:46:19.989Z,26.90
2022-10-29T04:48:51.790Z,15.70
2022-10-29T04:51:26.201Z,19.20
2022-10-29T04:53:58.034Z,22.80
2022-10-29T04:56:30.111Z,18.00
2022-10-29T04:59:01.711Z,27.60
2022-10-29T05:04:05.443Z,19.60
2022-10-29T05:06:37.049Z,19.50
2022-10-29T05:09:08.820Z,21.90
2022-10-29T05:11:40.707Z,19.30
2022-10-29T05:14:12.259Z,26.00
2022-10-29T05:16:43.840Z,37.10
2022-10-29T05:19:15.444Z,24.20
2022-10-29T05:21:47.152Z,24.40
2022-10-29T05:24:18.988Z,21.30
2022-10-29T05:26:50.515Z,21.30
2022-10-29T05:29:22.096Z,26.90
2022-10-29T05:31:55.454Z,18.50
2022-10-29T05:34:27.172Z,22.30
2022-10-29T05:36:58.837Z,30.30
2022-10-29T05:39:30.531Z,19.60
2022-10-29T05:42:02.200Z,28.70
2022-10-29T05:44:33.847Z,29.00
2022-10-29T05:47:07.021Z,16.80
2022-10-29T05:49:39.063Z,23.10
2022-10-29T05:52:11.004Z,34.20
2022-10-29T05:54:42.769Z,28.30
2022-10-29T05:57:14.527Z,17.00
2022-10-29T05:59:46.094Z,27.60
2022-10-29T06:02:17.899Z,22.30
2022-10-29T06:04:49.574Z,29.10
2022-10-29T06:07:21.117Z,26.60
2022-10-29T06:09:52.751Z,27.60
2022-10-29T06:12:24.409Z,21.70
2022-10-29T06:14:55.947Z,28.40
2022-10-29T06:17:27.662Z,22.20
2022-10-29T06:19:59.633Z,23.60
2022-10-29T06:22:31.268Z,22.50
2022-10-29T06:25:02.894Z,31.40
2022-10-29T06:27:34.724Z,22.10
2022-10-29T06:30:08.391Z,25.00
2022-10-29T06:32:40.151Z,28.40
2022-10-29T06:35:12.271Z,26.40
2022-10-29T06:37:43.905Z,23.30
2022-10-29T06:40:15.718Z,26.70
2022-10-29T06:42:47.404Z,27.30
2022-10-29T06:45:19.259Z,21.20
2022-10-29T06:47:51.156Z,25.00
2022-10-29T06:50:23.347Z,29.20
2022-10-29T06:53:00.058Z,27.80
2022-10-29T06:55:33.485Z,23.20
2022-10-29T06:58:07.652Z,26.20
2022-10-29T07:00:39.479Z,27.70
2022-10-29T07:03:12.923Z,22.30
2022-10-29T07:05:44.768Z,24.10
2022-10-29T07:08:16.409Z,28.00
2022-10-29T07:10:51.461Z,27.30
2022-10-29T07:13:23.516Z,25.60
2022-10-29T07:15:55.330Z,29.00
2022-10-29T07:18:26.960Z,27.90
2022-10-29T07:20:58.758Z,24.50
2022-10-29T07:26:07.324Z,36.20
2022-10-29T07:28:38.952Z,31.90
2022-10-29T07:31:10.576Z,30.80
2022-10-29T07:33:42.316Z,24.00
2022-10-29T07:36:14.181Z,26.10
2022-10-29T07:38:46.064Z,21.80
2022-10-29T07:41:18.053Z,33.30
2022-10-29T07:43:50.991Z,33.70
2022-10-29T07:46:22.725Z,27.10
2022-10-29T07:48:54.226Z,28.60
2022-10-29T07:51:25.969Z,28.50
2022-10-29T07:53:57.564Z,22.60
2022-10-29T07:56:29.269Z,24.20
2022-10-29T07:59:01.001Z,26.30
2022-10-29T08:01:33.820Z,29.70
2022-10-29T08:04:05.812Z,26.60
2022-10-29T08:06:37.435Z,26.30
2022-10-29T08:09:09.329Z,28.30
2022-10-29T08:11:41.262Z,29.30
2022-10-29T08:14:14.965Z,25.80
2022-10-29T08:16:48.337Z,26.00
2022-10-29T08:19:20.001Z,27.10
2022-10-29T08:21:51.732Z,25.20
2022-10-29T08:24:23.767Z,24.40
2022-10-29T08:26:55.400Z,26.70
2022-10-29T08:29:27.033Z,26.50
2022-10-29T08:31:58.639Z,27.20
2022-10-29T08:34:31.056Z,25.00
2022-10-29T08:37:02.736Z,40.40
2022-10-29T08:39:34.348Z,32.50
2022-10-29T08:42:16.345Z,31.00
2022-10-29T08:45:06.631Z,29.70
2022-10-29T08:47:47.206Z,30.70
2022-10-29T08:50:25.627Z,23.70
2022-10-29T08:53:22.735Z,26.60
2022-10-29T08:55:49.539Z,28.30
2022-10-29T08:58:29.285Z,32.10
2022-10-29T09:01:01.464Z,25.50
2022-10-29T09:03:33.768Z,26.30
2022-10-29T09:06:12.372Z,27.00
2022-10-29T09:09:01.884Z,37.00
2022-10-29T09:11:48.652Z,27.20
2022-10-29T09:14:41.957Z,32.20
2022-10-29T09:17:22.030Z,29.70
2022-10-29T09:20:09.897Z,26.30
2022-10-29T09:22:52.101Z,32.50
2022-10-29T09:25:28.884Z,25.60
2022-10-29T09:28:15.937Z,25.60
2022-10-29T09:31:00.066Z,26.20
2022-10-29T09:33:32.995Z,23.80
2022-10-29T09:36:12.495Z,27.50
2022-10-29T09:38:53.788Z,24.70
2022-10-29T09:41:31.929Z,21.30
2022-10-29T09:44:12.240Z,18.90
2022-10-29T09:46:53.730Z,21.60
2022-10-29T09:49:40.606Z,35.00
2022-10-29T09:52:19.290Z,23.80
2022-10-29T09:54:52.560Z,24.10
2022-10-29T09:57:29.429Z,25.50
2022-10-29T10:00:03.582Z,26.40
2022-10-29T10:02:46.484Z,25.30
2022-10-29T10:05:28.615Z,22.40
2022-10-29T10:08:14.750Z,18.80
2022-10-29T10:10:57.556Z,21.90
2022-10-29T10:13:32.331Z,32.10
2022-10-29T10:16:06.052Z,25.90
2022-10-29T10:21:29.975Z,22.80
2022-10-29T10:24:30.508Z,19.90
2022-10-29T10:27:03.153Z,22.20
2022-10-29T10:29:34.849Z,20.30
2022-10-29T10:32:18.193Z,16.30
2022-10-29T10:34:49.937Z,19.60
2022-10-29T10:37:22.937Z,23.00
2022-10-29T10:40:01.611Z,17.40
2022-10-29T10:42:37.222Z,15.90
2022-10-29T10:45:23.957Z,16.60
2022-10-29T10:47:59.306Z,17.80
2022-10-29T10:50:33.969Z,18.20
2022-10-29T10:53:17.095Z,17.90
2022-10-29T10:55:52.767Z,25.40
2022-10-29T10:58:32.427Z,13.70
2022-10-29T11:01:11.172Z,15.20
2022-10-29T11:03:47.797Z,14.60
2022-10-29T11:06:22.716Z,19.30
2022-10-29T11:08:59.269Z,15.80
2022-10-29T11:11:36.061Z,17.80
2022-10-29T11:14:13.271Z,14.00
2022-10-29T11:16:49.908Z,15.80
2022-10-29T11:19:31.361Z,13.40
2022-10-29T11:22:16.648Z,12.00
2022-10-29T11:24:54.437Z,13.40
2022-10-29T11:27:36.687Z,20.60
2022-10-29T11:30:12.461Z,13.60
2022-10-29T11:32:56.039Z,15.00
2022-10-29T11:35:38.274Z,7.80
2022-10-29T11:38:17.805Z,11.10
2022-10-29T11:40:58.463Z,15.40
2022-10-29T11:43:30.108Z,16.70
2022-10-29T11:46:11.126Z,18.70
2022-10-29T11:48:56.460Z,13.50
2022-10-29T11:51:38.129Z,10.20
2022-10-29T11:54:27.464Z,11.20
2022-10-29T11:57:04.094Z,16.80
2022-10-29T11:59:51.869Z,15.40
2022-10-29T12:02:37.550Z,16.40
2022-10-29T12:05:18.506Z,24.40
2022-10-29T12:08:06.806Z,13.60
2022-10-29T12:10:51.852Z,11.70
2022-10-29T12:13:34.602Z,13.70
2022-10-29T12:16:19.354Z,16.30
2022-10-29T12:18:59.459Z,10.90
2022-10-29T12:21:41.277Z,17.80
2022-10-29T12:24:30.369Z,10.60
2022-10-29T12:27:10.811Z,16.70
2022-10-29T12:29:53.777Z,14.20
2022-10-29T12:32:32.061Z,13.20
2022-10-29T12:35:14.481Z,15.40
2022-10-29T12:38:02.093Z,20.30
2022-10-29T12:40:37.971Z,15.70
2022-10-29T12:43:17.366Z,12.20
2022-10-29T12:48:59.115Z,17.20
2022-10-29T12:51:41.860Z,13.80
2022-10-29T12:56:56.583Z,17.60
2022-10-29T12:59:37.216Z,16.20
2022-10-29T13:02:46.246Z,17.50
2022-10-29T13:05:20.871Z,13.50
2022-10-29T13:08:20.114Z,20.70
2022-10-29T13:10:57.964Z,14.60
2022-10-29T13:13:56.956Z,14.00
2022-10-29T13:16:32.161Z,12.20
2022-10-29T13:19:15.267Z,23.50
2022-10-29T13:22:35.813Z,15.90
2022-10-29T13:25:42.335Z,32.70
2022-10-29T13:28:50.466Z,43.00
2022-10-29T13:31:47.816Z,21.20
2022-10-29T13:34:53.866Z,18.10
2022-10-29T13:38:03.491Z,19.90
2022-10-29T13:41:11.944Z,15.90
2022-10-29T13:43:54.497Z,28.30
2022-10-29T13:46:45.744Z,19.00
2022-10-29T13:49:24.696Z,14.70
2022-10-29T13:52:01.520Z,10.80
2022-10-29T13:54:42.024Z,11.70
2022-10-29T13:57:23.819Z,20.60
2022-10-29T14:00:04.238Z,18.90
2022-10-29T14:02:55.292Z,17.60
2022-10-29T14:05:35.958Z,9.90
2022-10-29T14:08:18.363Z,15.80
2022-10-29T14:10:59.781Z,15.70
2022-10-29T14:13:42.336Z,15.30
2022-10-29T14:16:20.418Z,13.70
2022-10-29T14:18:54.060Z,12.00
2022-10-29T14:21:28.941Z,15.30
2022-10-29T14:24:02.766Z,15.00
2022-10-29T14:26:37.029Z,14.00
2022-10-29T14:29:19.787Z,16.80
2022-10-29T14:32:08.084Z,14.70
2022-10-29T14:34:41.760Z,13.00
2022-10-29T14:37:23.180Z,16.80
2022-10-29T14:39:58.810Z,14.20
2022-10-29T14:42:34.296Z,18.40
2022-10-29T14:45:08.709Z,18.50
2022-10-29T14:47:40.635Z,11.60
2022-10-29T14:50:19.722Z,15.20
2022-10-29T14:52:54.213Z,16.40
2022-10-29T14:55:28.217Z,22.60
2022-10-29T14:58:05.889Z,12.40
2022-10-29T15:00:38.317Z,12.80
2022-10-29T15:03:19.429Z,13.60
2022-10-29T15:05:52.598Z,14.10
2022-10-29T15:08:29.405Z,11.30
2022-10-29T15:11:01.171Z,17.40
2022-10-29T15:13:35.959Z,16.00
2022-10-29T15:16:11.477Z,14.70
2022-10-29T15:18:47.863Z,19.20
2022-10-29T15:21:24.894Z,15.60
2022-10-29T15:24:00.485Z,13.10
2022-10-29T15:26:35.849Z,11.20
2022-10-29T15:29:12.631Z,14.20
2022-10-29T15:31:49.512Z,17.20
2022-10-29T15:34:24.323Z,12.80
2022-10-29T15:36:57.752Z,11.50
2022-10-29T15:39:53.345Z,18.90
2022-10-29T15:42:27.724Z,19.50
2022-10-29T15:45:29.326Z,24.50
2022-10-29T15:48:30.955Z,14.60
2022-10-29T15:51:04.176Z,15.00
2022-10-29T15:53:36.100Z,20.00
2022-10-29T15:56:12.036Z,14.20
2022-10-29T15:58:44.131Z,20.50
2022-10-29T16:01:17.769Z,22.40
2022-10-29T16:03:49.668Z,23.40
2022-10-29T16:06:21.371Z,25.50
2022-10-29T16:08:55.670Z,18.90
2022-10-29T16:11:28.139Z,29.20
2022-10-29T16:14:00.319Z,18.70
2022-10-29T16:16:33.313Z,18.70
2022-10-29T16:19:04.958Z,18.60
2022-10-29T16:21:37.331Z,24.60
2022-10-29T16:24:14.843Z,13.40
2022-10-29T16:26:46.515Z,20.30
2022-10-29T16:29:18.539Z,18.90
2022-10-29T16:31:50.274Z,16.00
2022-10-29T16:34:23.824Z,15.30
2022-10-29T16:36:58.356Z,21.60
2022-10-29T16:39:30.175Z,12.90
2022-10-29T16:42:01.848Z,17.30
2022-10-29T16:44:33.806Z,16.50
2022-10-29T16:47:07.628Z,26.00
2022-10-29T16:49:39.554Z,22.90
2022-10-29T16:52:16.135Z,20.30
2022-10-29T16:54:50.983Z,21.10
2022-10-29T16:57:23.731Z,18.30
2022-10-29T17:02:25.693Z,22.40
2022-10-29T17:04:57.355Z,27.20
2022-10-29T17:07:29.007Z,22.30
2022-10-29T17:10:00.709Z,19.10
2022-10-29T17:12:32.933Z,27.30
2022-10-29T17:15:05.554Z,25.20
2022-10-29T17:17:39.895Z,26.40
2022-10-29T17:20:14.396Z,28.70
2022-10-29T17:22:46.394Z,29.70
2022-10-29T17:25:18.473Z,34.90
2022-10-29T17:27:50.297Z,29.20
2022-10-29T17:30:22.036Z,37.50
2022-10-29T17:32:53.791Z,34.30
2022-10-29T17:35:25.543Z,39.50
2022-10-29T17:37:57.313Z,35.00
2022-10-29T17:40:29.224Z,40.40
2022-10-29T17:43:00.962Z,35.00
2022-10-29T17:45:32.998Z,31.60
2022-10-29T17:48:04.900Z,29.10
2022-10-29T17:50:36.669Z,29.30
2022-10-29T17:53:08.401Z,35.80
2022-10-29T17:55:40.289Z,29.40
2022-10-29T17:58:17.690Z,32.70
2022-10-29T18:00:50.250Z,33.20
2022-10-29T18:03:25.660Z,32.40
2022-10-29T18:06:02.018Z,42.60
2022-10-29T18:08:35.945Z,37.30
2022-10-29T18:11:11.595Z,44.50
2022-10-29T18:13:46.028Z,28.40
2022-10-29T18:16:20.507Z,34.90
2022-10-29T18:19:01.162Z,36.60
2022-10-29T18:21:35.064Z,33.30
2022-10-29T18:24:09.657Z,37.30
2022-10-29T18:26:41.469Z,34.40
2022-10-29T18:29:14.921Z,32.90
2022-10-29T18:31:47.066Z,36.50
2022-10-29T18:34:18.884Z,33.10
2022-10-29T18:36:50.758Z,40.30
2022-10-29T18:39:24.017Z,39.40
2022-10-29T18:41:57.113Z,35.30
2022-10-29T18:44:29.143Z,42.50
2022-10-29T18:47:01.532Z,40.60
2022-10-29T18:49:33.646Z,44.20
2022-10-29T18:52:06.075Z,35.90
2022-10-29T18:54:38.033Z,42.90
2022-10-29T18:57:09.809Z,42.90
2022-10-29T18:59:41.693Z,44.80
2022-10-29T19:02:14.722Z,46.60
2022-10-29T19:04:46.644Z,39.80
2022-10-29T19:07:18.269Z,41.00
2022-10-29T19:09:50.414Z,50.70
2022-10-29T19:12:22.290Z,39.40
2022-10-29T19:14:55.008Z,42.80
2022-10-29T19:19:59.441Z,45.40
2022-10-29T19:22:33.261Z,53.90
2022-10-29T19:25:05.235Z,58.70
2022-10-29T19:27:36.910Z,50.60
2022-10-29T19:30:11.504Z,57.60
2022-10-29T19:32:43.187Z,57.10
2022-10-29T19:35:15.095Z,60.80
2022-10-29T19:37:46.818Z,52.60
2022-10-29T19:40:18.877Z,55.60
2022-10-29T19:42:50.545Z,54.40
2022-10-29T19:45:22.228Z,52.10
2022-10-29T19:47:54.881Z,51.50
2022-10-29T19:50:27.060Z,55.80
2022-10-29T19:52:59.101Z,54.10
2022-10-29T19:55:31.309Z,60.00
2022-10-29T19:58:03.042Z,35.70
2022-10-29T20:00:35.431Z,47.50
2022-10-29T20:03:07.166Z,39.90
2022-10-29T20:05:39.230Z,48.20
2022-10-29T20:08:14.793Z,45.00
2022-10-29T20:10:54.432Z,56.00
2022-10-29T20:13:26.447Z,57.70
2022-10-29T20:15:58.558Z,51.90
2022-10-29T20:18:30.223Z,50.40
2022-10-29T20:21:02.014Z,54.40
2022-10-29T20:23:33.941Z,51.60
2022-10-29T20:26:06.274Z,48.10
2022-10-29T20:28:39.407Z,60.20
2022-10-29T20:31:27.820Z,58.20
2022-10-29T20:34:02.981Z,63.20
2022-10-29T20:36:36.827Z,56.40
2022-10-29T20:39:09.099Z,64.60
2022-10-29T20:41:40.652Z,70.10
2022-10-29T20:44:12.396Z,62.70
2022-10-29T20:46:44.097Z,60.60
2022-10-29T20:49:15.828Z,54.80
2022-10-29T20:51:47.710Z,54.00
2022-10-29T20:54:19.414Z,59.00
2022-10-29T20:56:51.106Z,61.40
2022-10-29T20:59:22.725Z,60.80
2022-10-29T21:01:55.004Z,56.90
2022-10-29T21:04:26.927Z,51.90
2022-10-29T21:06:58.730Z,61.00
2022-10-29T21:09:30.385Z,62.10
2022-10-29T21:12:02.886Z,55.90
2022-10-29T21:17:05.735Z,52.70
2022-10-29T21:19:37.701Z,58.50
2022-10-29T21:22:09.397Z,58.00
2022-10-29T21:24:44.626Z,59.00
2022-10-29T21:27:17.760Z,58.80
2022-10-29T21:29:49.421Z,59.60
2022-10-29T21:32:21.134Z,53.20
2022-10-29T21:34:52.707Z,62.70
2022-10-29T21:37:24.385Z,53.90
2022-10-29T21:39:56.742Z,66.10
2022-10-29T21:42:30.784Z,54.90
2022-10-29T21:45:02.428Z,67.10
2022-10-29T21:47:34.261Z,66.00
2022-10-29T21:50:06.515Z,54.50
2022-10-29T21:52:39.185Z,55.40
2022-10-29T21:55:11.242Z,58.30
2022-10-29T21:57:45.250Z,39.80
2022-10-29T22:00:21.124Z,61.90
2022-10-29T22:02:52.829Z,62.60
2022-10-29T22:05:24.515Z,54.40
2022-10-29T22:07:58.467Z,58.00
2022-10-29T22:10:30.547Z,59.80
2022-10-29T22:13:02.885Z,60.70
2022-10-29T22:15:34.637Z,72.90
2022-10-29T22:18:06.366Z,66.10
2022-10-29T22:20:38.021Z,61.10
2022-10-29T22:23:09.852Z,75.20
2022-10-29T22:25:41.543Z,67.60
2022-10-29T22:28:13.149Z,76.80
2022-10-29T22:30:45.030Z,65.80
2022-10-29T22:33:16.983Z,69.90
2022-10-29T22:35:48.653Z,81.00
2022-10-29T22:38:20.300Z,80.90
2022-10-29T22:40:52.235Z,65.50
2022-10-29T22:43:24.486Z,72.60
2022-10-29T22:45:56.115Z,77.30
2022-10-29T22:48:27.800Z,75.60
2022-10-29T22:51:04.434Z,73.60
2022-10-29T22:53:36.839Z,68.80
2022-10-29T22:56:09.374Z,48.20
2022-10-29T22:58:41.079Z,61.30
2022-10-29T23:01:15.150Z,66.00
2022-10-29T23:03:47.729Z,66.00
2022-10-29T23:08:53.564Z,68.90
2022-10-29T23:11:27.023Z,66.80
2022-10-29T23:14:00.766Z,66.80
2022-10-29T23:16:34.888Z,72.40
2022-10-29T23:19:08.096Z,78.30
2022-10-29T23:21:39.791Z,79.50
2022-10-29T23:24:12.185Z,63.60
2022-10-29T23:26:44.577Z,61.60
2022-10-29T23:29:16.208Z,65.20
2022-10-29T23:31:48.025Z,66.30
2022-10-29T23:34:19.742Z,65.00
2022-10-29T23:41:54.484Z,64.90
2022-10-29T23:44:26.295Z,63.20
2022-10-29T23:46:57.892Z,70.30
2022-10-29T23:49:30.069Z,70.10
2022-10-29T23:52:01.679Z,70.00
2022-10-29T23:54:33.378Z,67.10
2022-10-29T23:57:05.158Z,76.40
2022-10-29T23:59:37.064Z,69.20
